sensor_id;sensor_type;location;lat;lon;timestamp;temperature;humidity
2030;DHT22;1020;48.854;8.830;2022-07-30T00:00:45;18.10;99.90
2030;DHT22;1020;48.854;8.830;2022-07-30T00:03:12;18.10;99.90
2030;DHT22;1020;48.854;8.830;2022-07-30T00:05:40;18.00;99.90
2030;DHT22;1020;48.854;8.830;2022-07-30T00:08:07;18.10;99.90
2030;DHT22;1020;48.854;8.830;2022-07-30T00:10:34;18.10;99.90
2030;DHT22;1020;48.854;8.830;2022-07-30T00:13:00;16.50;99.90
2030;DHT22;1020;48.854;8.830;2022-07-30T00:15:27;18.10;99.90
2030;DHT22;1020;48.854;8.830;2022-07-30T00:17:54;18.10;99.90
2030;DHT22;1020;48.854;8.830;2022-07-30T00:20:21;18.10;99.90
2030;DHT22;1020;48.854;8.830;2022-07-30T00:22:49;18.10;99.90
2030;DHT22;1020;48.854;8.830;2022-07-30T00:25:16;18.10;99.90
2030;DHT22;1020;48.854;8.830;2022-07-30T00:27:43;18.30;99.90
2030;DHT22;1020;48.854;8.830;2022-07-30T00:30:11;18.10;99.90
2030;DHT22;1020;48.854;8.830;2022-07-30T00:32:38;18.10;99.90
2030;DHT22;1020;48.854;8.830;2022-07-30T00:35:06;18.10;99.90
2030;DHT22;1020;48.854;8.830;2022-07-30T00:37:33;18.10;99.90
2030;DHT22;1020;48.854;8.830;2022-07-30T00:40:01;18.10;99.90
2030;DHT22;1020;48.854;8.830;2022-07-30T00:42:39;18.00;99.90
2030;DHT22;1020;48.854;8.830;2022-07-30T00:45:07;18.00;99.90
2030;DHT22;1020;48.854;8.830;2022-07-30T00:47:34;17.90;99.90
2030;DHT22;1020;48.854;8.830;2022-07-30T00:50:01;17.90;99.90
2030;DHT22;1020;48.854;8.830;2022-07-30T00:52:29;17.90;99.90
2030;DHT22;1020;48.854;8.830;2022-07-30T00:54:57;17.80;99.90
2030;DHT22;1020;48.854;8.830;2022-07-30T00:57:25;17.80;99.90
2030;DHT22;1020;48.854;8.830;2022-07-30T00:59:52;17.70;99.90
2030;DHT22;1020;48.854;8.830;2022-07-30T01:02:19;17.70;99.90
2030;DHT22;1020;48.854;8.830;2022-07-30T01:04:46;17.60;99.90
2030;DHT22;1020;48.854;8.830;2022-07-30T01:07:13;17.60;99.90
2030;DHT22;1020;48.854;8.830;2022-07-30T01:09:40;17.60;99.90
2030;DHT22;1020;48.854;8.830;2022-07-30T01:12:08;17.50;99.90
2030;DHT22;1020;48.854;8.830;2022-07-30T01:14:38;17.50;99.90
2030;DHT22;1020;48.854;8.830;2022-07-30T01:17:05;17.40;1.00
2030;DHT22;1020;48.854;8.830;2022-07-30T01:19:35;17.30;1.00
2030;DHT22;1020;48.854;8.830;2022-07-30T01:22:23;17.20;1.00
2030;DHT22;1020;48.854;8.830;2022-07-30T01:24:58;17.20;1.00
2030;DHT22;1020;48.854;8.830;2022-07-30T01:27:30;17.20;1.00
2030;DHT22;1020;48.854;8.830;2022-07-30T01:29:58;17.20;1.00
2030;DHT22;1020;48.854;8.830;2022-07-30T01:32:27;17.30;92.00
2030;DHT22;1020;48.854;8.830;2022-07-30T01:34:58;17.30;15.30
2030;DHT22;1020;48.854;8.830;2022-07-30T01:37:27;17.30;92.70
2030;DHT22;1020;48.854;8.830;2022-07-30T01:39:55;17.30;73.50
2030;DHT22;1020;48.854;8.830;2022-07-30T01:42:23;17.40;1.00
2030;DHT22;1020;48.854;8.830;2022-07-30T01:44:53;17.40;1.00
2030;DHT22;1020;48.854;8.830;2022-07-30T01:47:21;17.30;1.00
2030;DHT22;1020;48.854;8.830;2022-07-30T01:49:51;17.30;1.00
2030;DHT22;1020;48.854;8.830;2022-07-30T01:52:19;17.30;1.00
2030;DHT22;1020;48.854;8.830;2022-07-30T01:54:49;17.30;1.00
2030;DHT22;1020;48.854;8.830;2022-07-30T01:57:18;17.30;1.00
2030;DHT22;1020;48.854;8.830;2022-07-30T01:59:49;17.40;1.00
2030;DHT22;1020;48.854;8.830;2022-07-30T02:02:17;17.30;99.90
2030;DHT22;1020;48.854;8.830;2022-07-30T02:04:45;17.30;99.90
2030;DHT22;1020;48.854;8.830;2022-07-30T02:07:15;17.30;99.90
2030;DHT22;1020;48.854;8.830;2022-07-30T02:09:50;17.30;99.90
2030;DHT22;1020;48.854;8.830;2022-07-30T02:12:20;17.30;99.90
2030;DHT22;1020;48.854;8.830;2022-07-30T02:14:58;17.30;99.90
2030;DHT22;1020;48.854;8.830;2022-07-30T02:17:29;17.30;99.90
2030;DHT22;1020;48.854;8.830;2022-07-30T02:19:58;17.20;99.90
2030;DHT22;1020;48.854;8.830;2022-07-30T02:22:30;17.20;99.90
2030;DHT22;1020;48.854;8.830;2022-07-30T02:25:00;17.30;99.90
2030;DHT22;1020;48.854;8.830;2022-07-30T02:27:31;17.20;99.90
2030;DHT22;1020;48.854;8.830;2022-07-30T02:29:59;17.20;99.90
2030;DHT22;1020;48.854;8.830;2022-07-30T02:32:34;17.10;99.90
2030;DHT22;1020;48.854;8.830;2022-07-30T02:35:06;17.00;99.90
2030;DHT22;1020;48.854;8.830;2022-07-30T02:40:03;16.90;99.90
2030;DHT22;1020;48.854;8.830;2022-07-30T02:42:30;16.90;99.90
2030;DHT22;1020;48.854;8.830;2022-07-30T02:44:58;16.80;1.00
2030;DHT22;1020;48.854;8.830;2022-07-30T02:47:26;16.70;1.00
2030;DHT22;1020;48.854;8.830;2022-07-30T02:49:56;16.70;1.00
2030;DHT22;1020;48.854;8.830;2022-07-30T02:52:26;16.70;90.60
2030;DHT22;1020;48.854;8.830;2022-07-30T02:54:55;16.70;99.90
2030;DHT22;1020;48.854;8.830;2022-07-30T02:57:22;16.60;99.90
2030;DHT22;1020;48.854;8.830;2022-07-30T02:59:51;16.60;99.90
2030;DHT22;1020;48.854;8.830;2022-07-30T03:02:19;16.60;99.90
2030;DHT22;1020;48.854;8.830;2022-07-30T03:04:48;16.50;99.90
2030;DHT22;1020;48.854;8.830;2022-07-30T03:07:16;16.50;99.90
2030;DHT22;1020;48.854;8.830;2022-07-30T03:09:45;16.50;99.90
2030;DHT22;1020;48.854;8.830;2022-07-30T03:12:13;16.50;99.90
2030;DHT22;1020;48.854;8.830;2022-07-30T03:14:41;16.50;57.90
2030;DHT22;1020;48.854;8.830;2022-07-30T03:17:08;16.40;98.60
2030;DHT22;1020;48.854;8.830;2022-07-30T03:19:36;16.30;99.90
2030;DHT22;1020;48.854;8.830;2022-07-30T03:22:05;16.30;99.90
2030;DHT22;1020;48.854;8.830;2022-07-30T03:24:35;16.30;99.90
2030;DHT22;1020;48.854;8.830;2022-07-30T03:27:03;16.20;99.90
2030;DHT22;1020;48.854;8.830;2022-07-30T03:29:31;16.20;99.90
2030;DHT22;1020;48.854;8.830;2022-07-30T03:32:00;16.20;99.90
2030;DHT22;1020;48.854;8.830;2022-07-30T03:34:31;16.20;99.90
2030;DHT22;1020;48.854;8.830;2022-07-30T03:36:59;16.20;99.90
2030;DHT22;1020;48.854;8.830;2022-07-30T03:39:27;16.20;99.90
2030;DHT22;1020;48.854;8.830;2022-07-30T03:41:55;16.20;1.00
2030;DHT22;1020;48.854;8.830;2022-07-30T03:44:22;16.30;1.00
2030;DHT22;1020;48.854;8.830;2022-07-30T03:46:51;16.40;1.00
2030;DHT22;1020;48.854;8.830;2022-07-30T03:49:19;16.40;99.90
2030;DHT22;1020;48.854;8.830;2022-07-30T03:51:48;16.50;99.90
2030;DHT22;1020;48.854;8.830;2022-07-30T03:54:15;16.60;99.90
2030;DHT22;1020;48.854;8.830;2022-07-30T03:56:42;16.60;99.90
2030;DHT22;1020;48.854;8.830;2022-07-30T03:59:12;16.60;99.90
2030;DHT22;1020;48.854;8.830;2022-07-30T04:01:39;16.70;99.90
2030;DHT22;1020;48.854;8.830;2022-07-30T04:04:07;16.80;99.90
2030;DHT22;1020;48.854;8.830;2022-07-30T04:06:34;16.90;99.90
2030;DHT22;1020;48.854;8.830;2022-07-30T04:09:04;16.90;99.90
2030;DHT22;1020;48.854;8.830;2022-07-30T04:11:32;17.00;99.90
2030;DHT22;1020;48.854;8.830;2022-07-30T04:13:58;17.00;85.30
2030;DHT22;1020;48.854;8.830;2022-07-30T04:16:33;17.10;55.70
2030;DHT22;1020;48.854;8.830;2022-07-30T04:19:01;17.10;31.60
2030;DHT22;1020;48.854;8.830;2022-07-30T04:21:29;17.10;11.90
2030;DHT22;1020;48.854;8.830;2022-07-30T04:23:58;17.20;1.00
2030;DHT22;1020;48.854;8.830;2022-07-30T04:26:27;17.30;1.00
2030;DHT22;1020;48.854;8.830;2022-07-30T04:28:54;17.30;1.00
2030;DHT22;1020;48.854;8.830;2022-07-30T04:31:21;17.30;1.00
2030;DHT22;1020;48.854;8.830;2022-07-30T04:33:49;17.40;1.00
2030;DHT22;1020;48.854;8.830;2022-07-30T04:36:16;17.40;1.00
2030;DHT22;1020;48.854;8.830;2022-07-30T04:38:43;17.50;1.00
2030;DHT22;1020;48.854;8.830;2022-07-30T04:41:10;17.40;1.00
2030;DHT22;1020;48.854;8.830;2022-07-30T04:43:36;17.50;1.00
2030;DHT22;1020;48.854;8.830;2022-07-30T04:46:03;17.50;1.00
2030;DHT22;1020;48.854;8.830;2022-07-30T04:48:30;17.40;1.00
2030;DHT22;1020;48.854;8.830;2022-07-30T04:50:59;17.50;1.00
2030;DHT22;1020;48.854;8.830;2022-07-30T04:53:28;17.50;1.00
2030;DHT22;1020;48.854;8.830;2022-07-30T04:55:56;17.60;1.00
2030;DHT22;1020;48.854;8.830;2022-07-30T04:58:25;17.60;1.00
2030;DHT22;1020;48.854;8.830;2022-07-30T05:00:53;17.70;1.00
2030;DHT22;1020;48.854;8.830;2022-07-30T05:03:22;17.80;1.00
2030;DHT22;1020;48.854;8.830;2022-07-30T05:05:51;17.80;1.00
2030;DHT22;1020;48.854;8.830;2022-07-30T05:08:19;17.80;1.00
2030;DHT22;1020;48.854;8.830;2022-07-30T05:10:46;17.90;1.00
2030;DHT22;1020;48.854;8.830;2022-07-30T05:13:13;17.90;1.00
2030;DHT22;1020;48.854;8.830;2022-07-30T05:15:41;18.00;1.00
2030;DHT22;1020;48.854;8.830;2022-07-30T05:18:09;18.10;1.00
2030;DHT22;1020;48.854;8.830;2022-07-30T05:20:36;18.10;1.00
2030;DHT22;1020;48.854;8.830;2022-07-30T05:23:03;18.10;1.00
2030;DHT22;1020;48.854;8.830;2022-07-30T05:25:31;18.10;1.00
2030;DHT22;1020;48.854;8.830;2022-07-30T05:27:58;18.10;1.00
2030;DHT22;1020;48.854;8.830;2022-07-30T05:30:24;18.20;1.00
2030;DHT22;1020;48.854;8.830;2022-07-30T05:32:51;18.40;1.00
2030;DHT22;1020;48.854;8.830;2022-07-30T05:35:18;18.40;1.00
2030;DHT22;1020;48.854;8.830;2022-07-30T05:37:45;18.50;1.00
2030;DHT22;1020;48.854;8.830;2022-07-30T05:40:12;18.60;1.00
2030;DHT22;1020;48.854;8.830;2022-07-30T05:42:40;18.80;1.00
2030;DHT22;1020;48.854;8.830;2022-07-30T05:45:08;18.90;1.00
2030;DHT22;1020;48.854;8.830;2022-07-30T05:47:34;19.00;1.00
2030;DHT22;1020;48.854;8.830;2022-07-30T05:50:01;19.00;1.00
2030;DHT22;1020;48.854;8.830;2022-07-30T05:52:28;19.20;1.00
2030;DHT22;1020;48.854;8.830;2022-07-30T05:54:55;19.30;1.00
2030;DHT22;1020;48.854;8.830;2022-07-30T05:57:22;19.30;1.00
2030;DHT22;1020;48.854;8.830;2022-07-30T05:59:50;19.40;1.00
2030;DHT22;1020;48.854;8.830;2022-07-30T06:02:17;19.50;1.00
2030;DHT22;1020;48.854;8.830;2022-07-30T06:04:43;19.50;1.00
2030;DHT22;1020;48.854;8.830;2022-07-30T06:07:11;19.60;1.00
2030;DHT22;1020;48.854;8.830;2022-07-30T06:09:37;19.70;1.00
2030;DHT22;1020;48.854;8.830;2022-07-30T06:12:04;19.80;1.00
2030;DHT22;1020;48.854;8.830;2022-07-30T06:14:31;19.80;1.00
2030;DHT22;1020;48.854;8.830;2022-07-30T06:16:59;19.80;1.00
2030;DHT22;1020;48.854;8.830;2022-07-30T06:19:26;19.90;1.00
2030;DHT22;1020;48.854;8.830;2022-07-30T06:21:53;20.00;1.00
2030;DHT22;1020;48.854;8.830;2022-07-30T06:24:19;20.10;1.00
2030;DHT22;1020;48.854;8.830;2022-07-30T06:26:46;20.20;1.00
2030;DHT22;1020;48.854;8.830;2022-07-30T06:29:13;20.30;1.00
2030;DHT22;1020;48.854;8.830;2022-07-30T06:31:40;20.30;1.00
2030;DHT22;1020;48.854;8.830;2022-07-30T06:34:08;20.30;99.90
2030;DHT22;1020;48.854;8.830;2022-07-30T06:36:35;20.40;99.90
2030;DHT22;1020;48.854;8.830;2022-07-30T06:39:02;20.60;99.90
2030;DHT22;1020;48.854;8.830;2022-07-30T06:41:29;20.70;99.90
2030;DHT22;1020;48.854;8.830;2022-07-30T06:43:56;20.60;99.90
2030;DHT22;1020;48.854;8.830;2022-07-30T06:46:22;20.80;99.90
2030;DHT22;1020;48.854;8.830;2022-07-30T06:48:49;20.90;99.90
2030;DHT22;1020;48.854;8.830;2022-07-30T06:51:17;21.00;99.90
2030;DHT22;1020;48.854;8.830;2022-07-30T06:53:44;21.20;99.90
2030;DHT22;1020;48.854;8.830;2022-07-30T06:56:11;21.40;99.90
2030;DHT22;1020;48.854;8.830;2022-07-30T06:58:38;21.60;99.90
2030;DHT22;1020;48.854;8.830;2022-07-30T07:01:05;21.80;99.90
2030;DHT22;1020;48.854;8.830;2022-07-30T07:03:32;21.90;99.90
2030;DHT22;1020;48.854;8.830;2022-07-30T07:05:58;21.80;99.90
2030;DHT22;1020;48.854;8.830;2022-07-30T07:08:27;21.90;99.90
2030;DHT22;1020;48.854;8.830;2022-07-30T07:10:54;22.00;99.90
2030;DHT22;1020;48.854;8.830;2022-07-30T07:13:20;22.30;99.90
2030;DHT22;1020;48.854;8.830;2022-07-30T07:15:47;22.50;99.90
2030;DHT22;1020;48.854;8.830;2022-07-30T07:18:14;22.40;99.90
2030;DHT22;1020;48.854;8.830;2022-07-30T07:20:41;22.50;99.90
2030;DHT22;1020;48.854;8.830;2022-07-30T07:23:11;22.60;99.90
2030;DHT22;1020;48.854;8.830;2022-07-30T07:25:39;22.60;99.90
2030;DHT22;1020;48.854;8.830;2022-07-30T07:28:06;22.90;99.90
2030;DHT22;1020;48.854;8.830;2022-07-30T07:30:33;23.40;99.90
2030;DHT22;1020;48.854;8.830;2022-07-30T07:33:00;24.00;99.90
2030;DHT22;1020;48.854;8.830;2022-07-30T07:35:26;22.90;99.90
2030;DHT22;1020;48.854;8.830;2022-07-30T07:37:53;24.90;99.90
2030;DHT22;1020;48.854;8.830;2022-07-30T07:40:20;25.00;99.90
2030;DHT22;1020;48.854;8.830;2022-07-30T07:42:49;24.80;99.90
2030;DHT22;1020;48.854;8.830;2022-07-30T07:45:16;24.50;99.90
2030;DHT22;1020;48.854;8.830;2022-07-30T07:47:44;24.70;99.90
2030;DHT22;1020;48.854;8.830;2022-07-30T07:50:13;24.70;99.90
2030;DHT22;1020;48.854;8.830;2022-07-30T07:52:40;24.70;99.90
2030;DHT22;1020;48.854;8.830;2022-07-30T07:55:08;24.90;99.90
2030;DHT22;1020;48.854;8.830;2022-07-30T07:57:38;24.40;99.90
2030;DHT22;1020;48.854;8.830;2022-07-30T08:00:09;24.40;99.90
2030;DHT22;1020;48.854;8.830;2022-07-30T08:02:37;24.50;99.90
2030;DHT22;1020;48.854;8.830;2022-07-30T08:05:05;25.30;99.90
2030;DHT22;1020;48.854;8.830;2022-07-30T08:07:32;26.10;99.90
2030;DHT22;1020;48.854;8.830;2022-07-30T08:09:59;25.90;99.90
2030;DHT22;1020;48.854;8.830;2022-07-30T08:12:26;26.10;99.90
2030;DHT22;1020;48.854;8.830;2022-07-30T08:14:53;26.40;99.90
2030;DHT22;1020;48.854;8.830;2022-07-30T08:17:21;26.90;99.90
2030;DHT22;1020;48.854;8.830;2022-07-30T08:19:49;26.90;99.90
2030;DHT22;1020;48.854;8.830;2022-07-30T08:22:16;27.70;99.90
2030;DHT22;1020;48.854;8.830;2022-07-30T08:24:43;26.90;99.90
2030;DHT22;1020;48.854;8.830;2022-07-30T08:27:10;29.70;99.90
2030;DHT22;1020;48.854;8.830;2022-07-30T08:29:37;29.80;99.90
2030;DHT22;1020;48.854;8.830;2022-07-30T08:32:04;29.90;99.90
2030;DHT22;1020;48.854;8.830;2022-07-30T08:34:32;27.90;99.90
2030;DHT22;1020;48.854;8.830;2022-07-30T08:36:59;27.10;99.90
2030;DHT22;1020;48.854;8.830;2022-07-30T08:39:26;27.50;99.90
2030;DHT22;1020;48.854;8.830;2022-07-30T08:41:53;27.80;99.90
2030;DHT22;1020;48.854;8.830;2022-07-30T08:44:20;27.40;99.90
2030;DHT22;1020;48.854;8.830;2022-07-30T08:46:48;27.40;99.90
2030;DHT22;1020;48.854;8.830;2022-07-30T08:49:17;29.60;99.90
2030;DHT22;1020;48.854;8.830;2022-07-30T08:51:45;29.80;99.90
2030;DHT22;1020;48.854;8.830;2022-07-30T08:54:12;30.60;99.90
2030;DHT22;1020;48.854;8.830;2022-07-30T08:56:39;29.70;99.90
2030;DHT22;1020;48.854;8.830;2022-07-30T08:59:06;29.80;99.90
2030;DHT22;1020;48.854;8.830;2022-07-30T09:01:33;29.10;99.90
2030;DHT22;1020;48.854;8.830;2022-07-30T09:04:00;29.00;99.90
2030;DHT22;1020;48.854;8.830;2022-07-30T09:06:27;28.50;99.90
2030;DHT22;1020;48.854;8.830;2022-07-30T09:08:56;28.90;99.90
2030;DHT22;1020;48.854;8.830;2022-07-30T09:11:23;28.90;99.90
2030;DHT22;1020;48.854;8.830;2022-07-30T09:13:50;28.70;99.90
2030;DHT22;1020;48.854;8.830;2022-07-30T09:16:18;28.50;99.90
2030;DHT22;1020;48.854;8.830;2022-07-30T09:18:46;28.00;99.90
2030;DHT22;1020;48.854;8.830;2022-07-30T09:21:15;27.30;99.90
2030;DHT22;1020;48.854;8.830;2022-07-30T09:23:56;27.60;99.90
2030;DHT22;1020;48.854;8.830;2022-07-30T09:26:23;27.80;99.90
2030;DHT22;1020;48.854;8.830;2022-07-30T09:28:50;27.90;99.90
2030;DHT22;1020;48.854;8.830;2022-07-30T09:31:18;28.00;99.90
2030;DHT22;1020;48.854;8.830;2022-07-30T09:33:46;28.80;99.90
2030;DHT22;1020;48.854;8.830;2022-07-30T09:36:15;28.60;99.90
2030;DHT22;1020;48.854;8.830;2022-07-30T09:38:46;27.90;99.90
2030;DHT22;1020;48.854;8.830;2022-07-30T09:41:16;27.40;99.90
2030;DHT22;1020;48.854;8.830;2022-07-30T09:43:45;26.80;99.90
2030;DHT22;1020;48.854;8.830;2022-07-30T09:46:13;27.50;99.90
2030;DHT22;1020;48.854;8.830;2022-07-30T09:48:41;28.90;99.90
2030;DHT22;1020;48.854;8.830;2022-07-30T09:51:08;28.30;99.90
2030;DHT22;1020;48.854;8.830;2022-07-30T09:53:35;27.80;99.90
2030;DHT22;1020;48.854;8.830;2022-07-30T09:56:24;28.10;99.90
2030;DHT22;1020;48.854;8.830;2022-07-30T09:58:51;29.30;99.90
2030;DHT22;1020;48.854;8.830;2022-07-30T10:01:18;29.50;99.90
2030;DHT22;1020;48.854;8.830;2022-07-30T10:03:45;29.10;99.90
2030;DHT22;1020;48.854;8.830;2022-07-30T10:06:12;28.90;99.90
2030;DHT22;1020;48.854;8.830;2022-07-30T10:08:40;28.20;99.90
2030;DHT22;1020;48.854;8.830;2022-07-30T10:11:10;28.40;99.90
2030;DHT22;1020;48.854;8.830;2022-07-30T10:13:40;28.70;99.90
2030;DHT22;1020;48.854;8.830;2022-07-30T10:16:07;28.60;99.90
2030;DHT22;1020;48.854;8.830;2022-07-30T10:18:35;28.20;99.90
2030;DHT22;1020;48.854;8.830;2022-07-30T10:21:03;28.40;99.90
2030;DHT22;1020;48.854;8.830;2022-07-30T10:23:31;28.60;99.90
2030;DHT22;1020;48.854;8.830;2022-07-30T10:25:59;28.50;99.90
2030;DHT22;1020;48.854;8.830;2022-07-30T10:28:27;28.20;99.90
2030;DHT22;1020;48.854;8.830;2022-07-30T10:30:57;28.60;99.90
2030;DHT22;1020;48.854;8.830;2022-07-30T10:33:25;29.00;99.90
2030;DHT22;1020;48.854;8.830;2022-07-30T10:35:53;28.60;99.90
2030;DHT22;1020;48.854;8.830;2022-07-30T10:38:29;29.00;99.90
2030;DHT22;1020;48.854;8.830;2022-07-30T10:41:00;29.80;99.90
2030;DHT22;1020;48.854;8.830;2022-07-30T10:43:58;30.70;99.90
2030;DHT22;1020;48.854;8.830;2022-07-30T10:46:42;30.40;99.90
2030;DHT22;1020;48.854;8.830;2022-07-30T10:49:13;29.70;99.90
2030;DHT22;1020;48.854;8.830;2022-07-30T10:51:45;30.40;99.90
2030;DHT22;1020;48.854;8.830;2022-07-30T10:54:34;30.50;99.90
2030;DHT22;1020;48.854;8.830;2022-07-30T10:57:06;30.30;99.90
2030;DHT22;1020;48.854;8.830;2022-07-30T11:00:08;29.20;99.90
2030;DHT22;1020;48.854;8.830;2022-07-30T11:02:37;29.50;99.90
2030;DHT22;1020;48.854;8.830;2022-07-30T11:05:23;29.30;99.90
2030;DHT22;1020;48.854;8.830;2022-07-30T11:07:50;29.60;99.90
2030;DHT22;1020;48.854;8.830;2022-07-30T11:10:34;30.00;99.90
2030;DHT22;1020;48.854;8.830;2022-07-30T11:13:02;30.00;99.90
2030;DHT22;1020;48.854;8.830;2022-07-30T11:15:50;29.90;99.90
2030;DHT22;1020;48.854;8.830;2022-07-30T11:18:19;31.10;99.90
2030;DHT22;1020;48.854;8.830;2022-07-30T11:21:17;30.20;99.90
2030;DHT22;1020;48.854;8.830;2022-07-30T11:23:44;30.30;99.90
2030;DHT22;1020;48.854;8.830;2022-07-30T11:29:35;30.10;99.90
2030;DHT22;1020;48.854;8.830;2022-07-30T11:32:22;30.30;99.90
2030;DHT22;1020;48.854;8.830;2022-07-30T11:34:51;29.70;99.90
2030;DHT22;1020;48.854;8.830;2022-07-30T11:37:18;29.10;99.90
2030;DHT22;1020;48.854;8.830;2022-07-30T11:40:05;28.90;99.90
2030;DHT22;1020;48.854;8.830;2022-07-30T11:42:35;29.30;99.90
2030;DHT22;1020;48.854;8.830;2022-07-30T11:45:22;29.80;99.90
2030;DHT22;1020;48.854;8.830;2022-07-30T11:47:58;29.90;99.90
2030;DHT22;1020;48.854;8.830;2022-07-30T11:50:31;29.80;99.90
2030;DHT22;1020;48.854;8.830;2022-07-30T11:52:59;29.90;99.90
2030;DHT22;1020;48.854;8.830;2022-07-30T11:55:28;30.10;99.90
2030;DHT22;1020;48.854;8.830;2022-07-30T11:57:57;29.50;99.90
2030;DHT22;1020;48.854;8.830;2022-07-30T12:00:24;28.60;99.90
2030;DHT22;1020;48.854;8.830;2022-07-30T12:02:51;29.10;99.90
2030;DHT22;1020;48.854;8.830;2022-07-30T12:05:23;29.70;99.90
2030;DHT22;1020;48.854;8.830;2022-07-30T12:07:55;30.10;99.90
2030;DHT22;1020;48.854;8.830;2022-07-30T12:10:23;29.10;99.90
2030;DHT22;1020;48.854;8.830;2022-07-30T12:12:50;29.10;99.90
2030;DHT22;1020;48.854;8.830;2022-07-30T12:15:30;29.50;99.90
2030;DHT22;1020;48.854;8.830;2022-07-30T12:17:57;30.20;99.90
2030;DHT22;1020;48.854;8.830;2022-07-30T12:20:26;30.30;99.90
2030;DHT22;1020;48.854;8.830;2022-07-30T12:22:55;30.30;99.90
2030;DHT22;1020;48.854;8.830;2022-07-30T12:25:22;30.50;99.90
2030;DHT22;1020;48.854;8.830;2022-07-30T12:27:49;30.80;99.90
2030;DHT22;1020;48.854;8.830;2022-07-30T12:30:17;31.10;99.90
2030;DHT22;1020;48.854;8.830;2022-07-30T12:32:44;31.20;99.90
2030;DHT22;1020;48.854;8.830;2022-07-30T12:35:12;31.60;99.90
2030;DHT22;1020;48.854;8.830;2022-07-30T12:37:39;31.90;99.90
2030;DHT22;1020;48.854;8.830;2022-07-30T12:40:11;31.40;99.90
2030;DHT22;1020;48.854;8.830;2022-07-30T12:42:48;30.90;99.90
2030;DHT22;1020;48.854;8.830;2022-07-30T12:45:27;31.20;99.90
2030;DHT22;1020;48.854;8.830;2022-07-30T12:47:54;31.50;99.90
2030;DHT22;1020;48.854;8.830;2022-07-30T12:50:22;30.30;99.90
2030;DHT22;1020;48.854;8.830;2022-07-30T12:52:49;31.30;99.90
2030;DHT22;1020;48.854;8.830;2022-07-30T12:55:26;31.40;99.90
2030;DHT22;1020;48.854;8.830;2022-07-30T12:57:56;31.30;99.90
2030;DHT22;1020;48.854;8.830;2022-07-30T13:00:25;30.60;99.90
2030;DHT22;1020;48.854;8.830;2022-07-30T13:02:53;30.50;99.90
2030;DHT22;1020;48.854;8.830;2022-07-30T13:08:02;29.80;99.90
2030;DHT22;1020;48.854;8.830;2022-07-30T13:10:30;30.40;99.90
2030;DHT22;1020;48.854;8.830;2022-07-30T13:12:57;30.60;99.90
2030;DHT22;1020;48.854;8.830;2022-07-30T13:15:24;30.90;99.90
2030;DHT22;1020;48.854;8.830;2022-07-30T13:17:51;31.80;99.90
2030;DHT22;1020;48.854;8.830;2022-07-30T13:20:19;31.80;99.90
2030;DHT22;1020;48.854;8.830;2022-07-30T13:22:46;30.90;99.90
2030;DHT22;1020;48.854;8.830;2022-07-30T13:25:13;31.50;99.90
2030;DHT22;1020;48.854;8.830;2022-07-30T13:27:41;31.70;99.90
2030;DHT22;1020;48.854;8.830;2022-07-30T13:30:09;31.60;99.90
2030;DHT22;1020;48.854;8.830;2022-07-30T13:32:36;31.60;99.90
2030;DHT22;1020;48.854;8.830;2022-07-30T13:35:03;31.50;99.90
2030;DHT22;1020;48.854;8.830;2022-07-30T13:37:30;31.70;99.90
2030;DHT22;1020;48.854;8.830;2022-07-30T13:39:57;31.50;99.90
2030;DHT22;1020;48.854;8.830;2022-07-30T13:42:24;30.00;99.90
2030;DHT22;1020;48.854;8.830;2022-07-30T13:44:52;29.60;99.90
2030;DHT22;1020;48.854;8.830;2022-07-30T13:47:19;29.20;99.90
2030;DHT22;1020;48.854;8.830;2022-07-30T13:49:46;28.90;99.90
2030;DHT22;1020;48.854;8.830;2022-07-30T13:52:14;29.20;99.90
2030;DHT22;1020;48.854;8.830;2022-07-30T13:54:41;30.40;99.90
2030;DHT22;1020;48.854;8.830;2022-07-30T13:57:08;31.20;99.90
2030;DHT22;1020;48.854;8.830;2022-07-30T13:59:34;30.70;99.90
2030;DHT22;1020;48.854;8.830;2022-07-30T14:02:02;31.60;99.90
2030;DHT22;1020;48.854;8.830;2022-07-30T14:04:29;30.90;99.90
2030;DHT22;1020;48.854;8.830;2022-07-30T14:06:56;30.00;99.90
2030;DHT22;1020;48.854;8.830;2022-07-30T14:09:23;29.90;99.90
2030;DHT22;1020;48.854;8.830;2022-07-30T14:11:50;29.40;99.90
2030;DHT22;1020;48.854;8.830;2022-07-30T14:14:17;29.10;99.90
2030;DHT22;1020;48.854;8.830;2022-07-30T14:16:44;29.00;99.90
2030;DHT22;1020;48.854;8.830;2022-07-30T14:19:16;28.80;99.90
2030;DHT22;1020;48.854;8.830;2022-07-30T14:21:44;29.20;99.90
2030;DHT22;1020;48.854;8.830;2022-07-30T14:24:12;29.70;99.90
2030;DHT22;1020;48.854;8.830;2022-07-30T14:26:41;29.60;99.90
2030;DHT22;1020;48.854;8.830;2022-07-30T14:29:08;29.90;99.90
2030;DHT22;1020;48.854;8.830;2022-07-30T14:31:35;30.10;99.90
2030;DHT22;1020;48.854;8.830;2022-07-30T14:34:05;30.00;99.90
2030;DHT22;1020;48.854;8.830;2022-07-30T14:36:43;29.60;99.90
2030;DHT22;1020;48.854;8.830;2022-07-30T14:39:09;29.20;99.90
2030;DHT22;1020;48.854;8.830;2022-07-30T14:41:36;28.90;99.90
2030;DHT22;1020;48.854;8.830;2022-07-30T14:44:04;28.50;99.90
2030;DHT22;1020;48.854;8.830;2022-07-30T14:46:30;28.40;99.90
2030;DHT22;1020;48.854;8.830;2022-07-30T14:48:57;28.50;99.90
2030;DHT22;1020;48.854;8.830;2022-07-30T14:51:24;29.10;99.90
2030;DHT22;1020;48.854;8.830;2022-07-30T14:53:52;29.30;99.90
2030;DHT22;1020;48.854;8.830;2022-07-30T14:56:19;29.40;99.90
2030;DHT22;1020;48.854;8.830;2022-07-30T14:58:46;29.40;99.90
2030;DHT22;1020;48.854;8.830;2022-07-30T15:01:13;29.10;99.90
2030;DHT22;1020;48.854;8.830;2022-07-30T15:03:40;29.40;99.90
2030;DHT22;1020;48.854;8.830;2022-07-30T15:06:07;30.00;99.90
2030;DHT22;1020;48.854;8.830;2022-07-30T15:08:36;30.10;99.90
2030;DHT22;1020;48.854;8.830;2022-07-30T15:11:05;30.10;99.90
2030;DHT22;1020;48.854;8.830;2022-07-30T15:13:32;30.10;99.90
2030;DHT22;1020;48.854;8.830;2022-07-30T15:15:59;30.00;99.90
2030;DHT22;1020;48.854;8.830;2022-07-30T15:18:25;30.10;99.90
2030;DHT22;1020;48.854;8.830;2022-07-30T15:20:52;30.10;99.90
2030;DHT22;1020;48.854;8.830;2022-07-30T15:23:19;30.40;99.90
2030;DHT22;1020;48.854;8.830;2022-07-30T15:25:46;30.40;99.90
2030;DHT22;1020;48.854;8.830;2022-07-30T15:28:15;30.30;99.90
2030;DHT22;1020;48.854;8.830;2022-07-30T15:30:42;30.40;99.90
2030;DHT22;1020;48.854;8.830;2022-07-30T15:33:09;30.10;99.90
2030;DHT22;1020;48.854;8.830;2022-07-30T15:35:36;29.70;99.90
2030;DHT22;1020;48.854;8.830;2022-07-30T15:38:03;29.60;99.90
2030;DHT22;1020;48.854;8.830;2022-07-30T15:40:30;29.60;99.90
2030;DHT22;1020;48.854;8.830;2022-07-30T15:42:56;29.40;99.90
2030;DHT22;1020;48.854;8.830;2022-07-30T15:45:25;29.20;99.90
2030;DHT22;1020;48.854;8.830;2022-07-30T15:47:51;28.90;99.90
2030;DHT22;1020;48.854;8.830;2022-07-30T15:50:18;28.70;99.90
2030;DHT22;1020;48.854;8.830;2022-07-30T15:52:45;28.40;99.90
2030;DHT22;1020;48.854;8.830;2022-07-30T15:55:12;28.20;99.90
2030;DHT22;1020;48.854;8.830;2022-07-30T15:57:39;28.40;99.90
2030;DHT22;1020;48.854;8.830;2022-07-30T16:00:07;28.50;99.90
2030;DHT22;1020;48.854;8.830;2022-07-30T16:02:35;28.60;99.90
2030;DHT22;1020;48.854;8.830;2022-07-30T16:05:02;28.80;99.90
2030;DHT22;1020;48.854;8.830;2022-07-30T16:07:29;29.20;99.90
2030;DHT22;1020;48.854;8.830;2022-07-30T16:09:56;29.20;99.90
2030;DHT22;1020;48.854;8.830;2022-07-30T16:12:23;29.20;99.90
2030;DHT22;1020;48.854;8.830;2022-07-30T16:14:50;29.20;99.90
2030;DHT22;1020;48.854;8.830;2022-07-30T16:17:17;28.90;99.90
2030;DHT22;1020;48.854;8.830;2022-07-30T16:19:45;28.70;99.90
2030;DHT22;1020;48.854;8.830;2022-07-30T16:22:12;28.40;99.90